• Join FlightAware (Why Join?)
  • Login
  • US Flag GB Flag 
01:13 EDT


 

Airport Tracker/Info


-or-


 

Live Flight TrackerFlight Track Log ✈ EMD21 ✈ 18-Jun-2013 ✈ KGGG - KBNA

Flight Track Log - Related Links

Times and Time Zones

All times are in EDT time to prevent confusion due to time zone crossing. See the EMD21 flight status page for this flight to view local times or setup timezone preferences in your user account.

Time Position Orientation Groundspeed Altitude Reporting Facility
EDT Latitude Longitude Course Direction KTS MPH feet Rate Location/Type
12:06 32.4267 -94.5214 59° Northeast 202 232 4,700  Level Fort Worth Center
12:06 32.4444 -94.4864 59° Northeast 197 227 5,200 840 Climbing Fort Worth Center
12:07 32.4664 -94.4414 60° Northeast 206 237 5,900 900 Climbing Fort Worth Center
12:08 32.4822 -94.4064 62° Northeast 198 228 6,500 960 Climbing Fort Worth Center
12:09 32.5802 -94.3321 59° Northeast  Level Estimated
12:09 32.5183 -94.3486 53° Northeast 193 222 7,500  Level Fort Worth Center
12:10 32.6056 -94.2555 59° Northeast  Level FlightAware Approximate
12:10 32.5464 -94.2933 59° Northeast 193 222 8,400  Level Fort Worth Center
12:11 32.6376 -94.1917 59° Northeast  Level FlightAware Approximate
12:11 32.5889 -94.2378 48° Northeast 198 228 9,400  Level Fort Worth Center
12:12 32.6319 -94.2117 27° Northeast 198 228 10,300 840 Climbing Fort Worth Center
12:13 32.6894 -94.1725 30° Northeast 203 234 11,100 840 Climbing Fort Worth Center
12:14 32.7303 -94.1414 33° Northeast 203 234 12,000 900 Climbing Fort Worth Center
12:15 32.7772 -94.1025 35° Northeast 197 227 12,900 900 Climbing Fort Worth Center
12:16 32.8289 -94.0733 25° Northeast 197 227 13,800 720 Climbing Fort Worth Center
12:17 32.8803 -94.0444 25° Northeast 197 227 14,400 600 Climbing Fort Worth Center
12:18 32.9269 -94.0031 37° Northeast 197 227 15,000 540 Climbing Fort Worth Center
12:19 32.9717 -93.9542 43° Northeast 209 241 15,500 480 Climbing Fort Worth Center
12:20 33.0097 -93.8958 52° Northeast 215 247 16,000 600 Climbing Fort Worth Center
12:21 33.0456 -93.8400 53° Northeast 215 247 16,800 480 Climbing Fort Worth Center
12:22 33.0753 -93.7792 60° Northeast 209 241 17,000 60 Climbing Fort Worth Center
12:23 33.1086 -93.7108 60° Northeast 214 246 17,000  Level Fort Worth Center
12:24 33.1358 -93.6403 65° Northeast 224 258 17,000  Level Fort Worth Center
12:25 33.1708 -93.5594 63° Northeast 238 274 17,100  Climbing Fort Worth Center
12:26 33.2108 -93.4956 53° Northeast 243 280 17,000  Descending Fort Worth Center
12:27 33.2419 -93.4247 62° Northeast 243 280 17,100  Climbing Fort Worth Center
12:28 33.2731 -93.3514 63° Northeast 238 274 17,100  Level Fort Worth Center
12:29 33.3083 -93.2825 58° Northeast 238 274 17,100  Level Fort Worth Center
12:30 33.3414 -93.2139 60° Northeast 238 274 17,100  Level Fort Worth Center
12:31 33.3744 -93.1425 61° Northeast 238 274 17,100  Level Fort Worth Center
12:32 33.4075 -93.0689 62° Northeast 233 268 17,100  Level Fort Worth Center
12:33 33.4425 -92.9975 60° Northeast 233 268 17,100  Level Fort Worth Center
12:33 33.4547 -92.9717 60° Northeast 233 268 17,100  Level Memphis Center
12:34 33.4875 -92.9003 61° Northeast 238 274 17,100  Level Memphis Center
12:35 33.5222 -92.8292 60° Northeast 243 280 17,100  Level Memphis Center
12:36 33.5528 -92.7550 64° Northeast 243 280 17,100  Level Memphis Center
12:37 33.5856 -92.6861 60° Northeast 243 280 17,100  Level Memphis Center
12:38 33.6203 -92.6147 60° Northeast 243 280 17,100  Level Memphis Center
12:39 33.6506 -92.5433 63° Northeast 243 280 17,100  Level Memphis Center
12:40 33.6872 -92.4742 57° Northeast 238 274 17,100  Level Memphis Center
12:41 33.7156 -92.4050 64° Northeast 238 274 17,100 -60 Level Memphis Center
12:42 33.7481 -92.3333 61° Northeast 238 274 17,000 -60 Descending Memphis Center
12:43 33.7806 -92.2642 61° Northeast 238 274 17,000  Level Memphis Center
12:44 33.8150 -92.1947 59° Northeast 238 274 17,000  Level Memphis Center
12:45 33.8450 -92.1256 62° Northeast 233 268 17,000  Level Memphis Center
12:46 33.8711 -92.0533 66° East 233 268 17,000  Level Memphis Center
12:47 33.9097 -91.9867 55° Northeast 233 268 17,100  Climbing Memphis Center
12:48 33.9397 -91.9169 63° Northeast 233 268 17,000 -60 Descending Memphis Center
12:49 33.9697 -91.8475 62° Northeast 233 268 17,000  Level Memphis Center
12:50 33.9997 -91.7753 63° Northeast 233 268 17,000  Level Memphis Center
12:51 34.0278 -91.7056 64° Northeast 233 268 17,000  Level Memphis Center
12:52 34.0597 -91.6358 61° Northeast 233 268 17,000  Level Memphis Center
12:53 34.0961 -91.5636 59° Northeast 233 268 17,000  Level Memphis Center
12:54 34.1258 -91.4939 63° Northeast 228 262 17,000  Level Memphis Center
12:55 34.1558 -91.4214 63° Northeast 228 262 17,000  Level Memphis Center
12:56 34.1856 -91.3514 63° Northeast 228 262 17,000  Level Memphis Center
12:57 34.2153 -91.2814 63° Northeast 228 262 17,000  Level Memphis Center
12:58 34.2469 -91.2139 60° Northeast 233 268 17,000  Level Memphis Center
12:59 34.2808 -91.1439 60° Northeast 233 268 17,000 -60 Level Memphis Center
13:00 34.3106 -91.0714 64° Northeast 233 268 16,900 -60 Descending Memphis Center
13:01 34.3422 -91.0011 61° Northeast 233 268 16,900  Level Memphis Center
13:02 34.3697 -90.9383 62° Northeast 233 268 17,000  Climbing Memphis Center
13:03 34.3992 -90.8656 64° Northeast 238 274 17,000  Level Memphis Center
13:04 34.4328 -90.7953 60° Northeast 238 274 17,000  Level Memphis Center
13:05 34.4622 -90.7225 64° Northeast 238 274 17,000  Level Memphis Center
13:06 34.4939 -90.6494 62° Northeast 238 274 17,100  Climbing Memphis Center
13:07 34.5253 -90.5814 61° Northeast 238 274 17,100 -60 Level Memphis Center
13:08 34.5586 -90.5033 63° Northeast 238 274 17,000 -60 Descending Memphis Center
13:09 34.5900 -90.4328 62° Northeast 238 274 17,000  Level Memphis Center
13:10 34.6214 -90.3597 62° Northeast 238 274 17,000  Level Memphis Center
13:11 34.6506 -90.2889 63° Northeast 238 274 17,100  Climbing Memphis Center
13:12 34.6839 -90.2156 61° Northeast 238 274 17,000 -60 Descending Memphis Center
13:13 34.7131 -90.1475 62° Northeast 238 274 17,000  Level Memphis Center
13:14 34.7419 -90.0767 64° Northeast 238 274 17,100  Climbing Memphis Center
13:15 34.7753 -90.0031 61° Northeast 238 274 17,000 -60 Descending Memphis Center
13:16 34.8042 -89.9322 64° Northeast 238 274 17,000  Level Memphis Center
13:17 34.8311 -89.8714 62° Northeast 238 274 17,000  Level Memphis Center
13:18 34.8642 -89.7825 66° East 238 274 17,000  Level Memphis Center
13:19 34.8931 -89.7064 65° Northeast 239 275 17,000  Level Memphis Center
13:20 34.9281 -89.6378 58° Northeast 247 284 17,000  Level Memphis Center
13:21 34.9589 -89.5664 62° Northeast 242 278 17,100  Climbing Memphis Center
13:22 34.9875 -89.4953 64° Northeast 237 273 17,000 -60 Descending Memphis Center
13:23 35.0183 -89.4214 63° Northeast 237 273 17,000  Level Memphis Center
13:24 35.0492 -89.3500 62° Northeast 237 273 17,100  Climbing Memphis Center
13:25 35.0756 -89.2864 63° Northeast 237 273 17,000 -60 Descending Memphis Center
13:26 35.1064 -89.2122 63° Northeast 237 273 17,000  Level Memphis Center
13:27 35.1347 -89.1408 64° Northeast 232 267 17,000 -60 Level Memphis Center
13:28 35.1653 -89.0692 62° Northeast 232 267 16,900 -60 Descending Memphis Center
13:29 35.1958 -88.9978 62° Northeast 237 273 16,900  Level Memphis Center
13:30 35.2264 -88.9258 63° Northeast 232 267 16,900  Level Memphis Center
13:31 35.2567 -88.8492 64° Northeast 238 274 17,000  Climbing Memphis Center
13:32 35.2892 -88.7722 63° Northeast 238 274 16,900 -60 Descending Memphis Center
13:33 35.3194 -88.7006 63° Northeast 238 274 16,900  Level Memphis Center
13:34 35.3478 -88.6236 66° East 238 274 16,900  Level Memphis Center
13:35 35.3781 -88.5542 62° Northeast 238 274 16,900  Level Memphis Center
13:36 35.4081 -88.4797 64° Northeast 238 274 16,900  Level Memphis Center
13:37 35.4383 -88.4050 64° Northeast 238 274 16,900 -240 Level Memphis Center
13:38 35.4706 -88.3278 63° Northeast 238 274 16,500 -300 Descending Memphis Center
13:39 35.5006 -88.2506 64° Northeast 238 274 16,300 -300 Descending Memphis Center
13:40 35.5344 -88.1706 62° Northeast 243 280 16,000 -600 Descending Memphis Center
13:41 35.5603 -88.0958 67° East 237 273 15,200 -600 Descending Memphis Center
13:42 35.5881 -88.0161 67° East 243 280 14,900 -540 Descending Memphis Center
13:43 35.6200 -87.9383 63° Northeast 243 280 14,200 -600 Descending Memphis Center
13:44 35.6558 -87.8633 60° Northeast 248 285 13,700 -480 Descending Memphis Center
13:45 35.6794 -87.7833 70° East 248 285 13,300 -480 Descending Memphis Center
13:46 35.7133 -87.7108 60° Northeast 241 277 12,800 -420 Descending Memphis Center
13:47 35.7411 -87.6433 63° Northeast 241 277 12,500 -480 Descending Memphis Center
13:48 35.7706 -87.5681 64° Northeast 241 277 11,900 -600 Descending Memphis Center
13:49 35.8000 -87.4903 65° Northeast 246 283 11,400 -420 Descending Memphis Center
13:50 35.8297 -87.4178 63° Northeast 241 277 11,100 -480 Descending Memphis Center
13:51 35.8592 -87.3450 63° Northeast 236 272 10,500 -600 Descending Memphis Center
13:52 35.8761 -87.2650 75° East 236 272 9,900 -780 Descending Memphis Center
13:53 35.8822 -87.1800 85° East 242 278 9,000 -900 Descending Memphis Center
13:54 35.8881 -87.0878 86° East 247 284 8,200 -1,020 Descending Memphis Center
13:55 35.8983 -87.0053 81° East 247 284 7,000 -1,020 Descending Memphis Center
13:56 35.9025 -86.9283 86° East 237 273 6,200 -960 Descending Memphis Center
13:57 35.8986 -86.8617 94° East 201 231 5,100 -1,440 Descending Memphis Center
13:58 35.8947 -86.8003 94° East 189 217 3,400 -1,320 Descending Memphis Center
13:59 35.9100 -86.7486 70° East 169 194 2,500 -480 Descending Memphis Center
14:00 35.9553 -86.7286 20° North 152 175 2,500  Level Memphis Center
14:01 36.0047 -86.7108 16° North 165 190 2,500 -240 Level Memphis Center
14:02 36.0439 -86.6939 19° North 159 183 2,100 -600 Descending Memphis Center
14:03 36.0811 -86.6794 17° North 145 167 1,400 -720 Descending Memphis Center
14:06 36.1167 -86.6667 43° Northeast  Level FlightAware Approximate
14:13 36.1245 -86.6782 43° Northeast  Level Estimated
14:14 36.1245 -86.6782 43° Northeast  Level Estimated
14:15 36.1245 -86.6782 43° Northeast  Level Estimated
14:16 36.1245 -86.6782 43° Northeast  Level Estimated
14:17 36.1245 -86.6782 43° Northeast  Level Estimated
14:18 36.1245 -86.6782 43° Northeast  Level Estimated